sensor_id;sensor_type;location;lat;lon;timestamp;P1;durP1;ratioP1;P2;durP2;ratioP2
21519;SDS011;10921;53.614;9.882;2022-08-21T00:02:00;21.25;;;18.02;;
21519;SDS011;10921;53.614;9.882;2022-08-21T00:04:27;21.35;;;16.83;;
21519;SDS011;10921;53.614;9.882;2022-08-21T00:06:55;20.83;;;16.20;;
21519;SDS011;10921;53.614;9.882;2022-08-21T00:09:23;25.25;;;17.65;;
21519;SDS011;10921;53.614;9.882;2022-08-21T00:11:49;18.55;;;16.58;;
21519;SDS011;10921;53.614;9.882;2022-08-21T00:14:16;24.80;;;17.63;;
21519;SDS011;10921;53.614;9.882;2022-08-21T00:16:42;20.90;;;17.48;;
21519;SDS011;10921;53.614;9.882;2022-08-21T00:19:09;22.08;;;17.17;;
21519;SDS011;10921;53.614;9.882;2022-08-21T00:21:36;18.83;;;16.75;;
21519;SDS011;10921;53.614;9.882;2022-08-21T00:24:03;19.98;;;17.38;;
21519;SDS011;10921;53.614;9.882;2022-08-21T00:26:29;21.67;;;16.35;;
21519;SDS011;10921;53.614;9.882;2022-08-21T00:28:56;19.13;;;16.92;;
21519;SDS011;10921;53.614;9.882;2022-08-21T00:31:24;20.58;;;16.05;;
21519;SDS011;10921;53.614;9.882;2022-08-21T00:33:51;22.70;;;17.52;;
21519;SDS011;10921;53.614;9.882;2022-08-21T00:36:23;23.23;;;16.40;;
21519;SDS011;10921;53.614;9.882;2022-08-21T00:38:49;20.23;;;17.40;;
21519;SDS011;10921;53.614;9.882;2022-08-21T00:41:16;19.45;;;17.15;;
21519;SDS011;10921;53.614;9.882;2022-08-21T00:44:02;23.40;;;17.15;;
21519;SDS011;10921;53.614;9.882;2022-08-21T00:46:30;18.73;;;16.73;;
21519;SDS011;10921;53.614;9.882;2022-08-21T00:48:56;20.35;;;17.30;;
21519;SDS011;10921;53.614;9.882;2022-08-21T00:51:35;19.08;;;16.80;;
21519;SDS011;10921;53.614;9.882;2022-08-21T00:54:06;19.13;;;16.48;;
21519;SDS011;10921;53.614;9.882;2022-08-21T00:56:44;19.45;;;17.30;;
21519;SDS011;10921;53.614;9.882;2022-08-21T00:59:13;18.88;;;16.90;;
21519;SDS011;10921;53.614;9.882;2022-08-21T01:01:40;19.05;;;17.13;;
21519;SDS011;10921;53.614;9.882;2022-08-21T01:04:07;20.08;;;17.70;;
21519;SDS011;10921;53.614;9.882;2022-08-21T01:06:33;19.75;;;17.75;;
21519;SDS011;10921;53.614;9.882;2022-08-21T01:09:01;19.20;;;17.23;;
21519;SDS011;10921;53.614;9.882;2022-08-21T01:11:28;20.70;;;17.23;;
21519;SDS011;10921;53.614;9.882;2022-08-21T01:13:55;19.75;;;17.15;;
21519;SDS011;10921;53.614;9.882;2022-08-21T01:16:22;22.35;;;17.45;;
21519;SDS011;10921;53.614;9.882;2022-08-21T01:18:50;22.67;;;18.10;;
21519;SDS011;10921;53.614;9.882;2022-08-21T01:21:18;22.45;;;19.35;;
21519;SDS011;10921;53.614;9.882;2022-08-21T01:23:54;22.23;;;18.42;;
21519;SDS011;10921;53.614;9.882;2022-08-21T01:26:24;20.77;;;18.40;;
21519;SDS011;10921;53.614;9.882;2022-08-21T01:29:01;22.00;;;18.70;;
21519;SDS011;10921;53.614;9.882;2022-08-21T01:31:36;21.70;;;17.45;;
21519;SDS011;10921;53.614;9.882;2022-08-21T01:34:03;20.92;;;18.20;;
21519;SDS011;10921;53.614;9.882;2022-08-21T01:36:31;20.27;;;17.90;;
21519;SDS011;10921;53.614;9.882;2022-08-21T01:38:57;20.70;;;18.52;;
21519;SDS011;10921;53.614;9.882;2022-08-21T01:41:24;20.48;;;18.08;;
21519;SDS011;10921;53.614;9.882;2022-08-21T01:43:50;19.88;;;18.00;;
21519;SDS011;10921;53.614;9.882;2022-08-21T01:46:17;21.05;;;18.02;;
21519;SDS011;10921;53.614;9.882;2022-08-21T01:48:44;23.25;;;18.55;;
21519;SDS011;10921;53.614;9.882;2022-08-21T01:51:11;20.73;;;18.60;;
21519;SDS011;10921;53.614;9.882;2022-08-21T01:53:38;20.73;;;18.73;;
21519;SDS011;10921;53.614;9.882;2022-08-21T01:56:06;19.35;;;17.45;;
21519;SDS011;10921;53.614;9.882;2022-08-21T01:58:38;20.35;;;18.27;;
21519;SDS011;10921;53.614;9.882;2022-08-21T02:01:07;19.42;;;17.75;;
21519;SDS011;10921;53.614;9.882;2022-08-21T02:03:35;19.05;;;17.17;;
21519;SDS011;10921;53.614;9.882;2022-08-21T02:06:03;21.17;;;18.60;;
21519;SDS011;10921;53.614;9.882;2022-08-21T02:08:33;19.33;;;17.55;;
21519;SDS011;10921;53.614;9.882;2022-08-21T02:11:00;19.35;;;17.00;;
21519;SDS011;10921;53.614;9.882;2022-08-21T02:13:26;20.02;;;18.23;;
21519;SDS011;10921;53.614;9.882;2022-08-21T02:15:53;20.25;;;18.27;;
21519;SDS011;10921;53.614;9.882;2022-08-21T02:18:19;20.08;;;18.08;;
21519;SDS011;10921;53.614;9.882;2022-08-21T02:20:47;20.05;;;18.10;;
21519;SDS011;10921;53.614;9.882;2022-08-21T02:23:22;19.95;;;17.88;;
21519;SDS011;10921;53.614;9.882;2022-08-21T02:25:54;20.92;;;18.92;;
21519;SDS011;10921;53.614;9.882;2022-08-21T02:28:23;20.08;;;18.27;;
21519;SDS011;10921;53.614;9.882;2022-08-21T02:30:51;22.92;;;19.23;;
21519;SDS011;10921;53.614;9.882;2022-08-21T02:33:18;20.45;;;18.33;;
21519;SDS011;10921;53.614;9.882;2022-08-21T02:35:46;21.45;;;19.20;;
21519;SDS011;10921;53.614;9.882;2022-08-21T02:38:15;20.00;;;18.30;;
21519;SDS011;10921;53.614;9.882;2022-08-21T02:43:13;19.42;;;17.45;;
21519;SDS011;10921;53.614;9.882;2022-08-21T02:45:42;20.05;;;18.17;;
21519;SDS011;10921;53.614;9.882;2022-08-21T02:48:11;21.10;;;18.92;;
21519;SDS011;10921;53.614;9.882;2022-08-21T02:50:40;19.90;;;17.98;;
21519;SDS011;10921;53.614;9.882;2022-08-21T02:53:10;22.73;;;18.60;;
21519;SDS011;10921;53.614;9.882;2022-08-21T02:55:40;20.05;;;18.25;;
21519;SDS011;10921;53.614;9.882;2022-08-21T02:58:07;19.60;;;17.92;;
21519;SDS011;10921;53.614;9.882;2022-08-21T03:00:35;19.63;;;17.60;;
21519;SDS011;10921;53.614;9.882;2022-08-21T03:03:03;19.40;;;17.73;;
21519;SDS011;10921;53.614;9.882;2022-08-21T03:05:31;20.25;;;17.85;;
21519;SDS011;10921;53.614;9.882;2022-08-21T03:07:59;20.02;;;18.17;;
21519;SDS011;10921;53.614;9.882;2022-08-21T03:10:28;20.60;;;18.48;;
21519;SDS011;10921;53.614;9.882;2022-08-21T03:12:55;27.13;;;19.08;;
21519;SDS011;10921;53.614;9.882;2022-08-21T03:15:22;18.40;;;16.73;;
21519;SDS011;10921;53.614;9.882;2022-08-21T03:17:51;19.60;;;17.60;;
21519;SDS011;10921;53.614;9.882;2022-08-21T03:20:22;18.63;;;16.92;;
21519;SDS011;10921;53.614;9.882;2022-08-21T03:22:50;18.58;;;16.90;;
21519;SDS011;10921;53.614;9.882;2022-08-21T03:25:18;19.52;;;17.40;;
21519;SDS011;10921;53.614;9.882;2022-08-21T03:28:06;18.13;;;16.40;;
21519;SDS011;10921;53.614;9.882;2022-08-21T03:30:42;19.33;;;17.30;;
21519;SDS011;10921;53.614;9.882;2022-08-21T03:33:10;19.80;;;17.88;;
21519;SDS011;10921;53.614;9.882;2022-08-21T03:35:41;19.60;;;17.67;;
21519;SDS011;10921;53.614;9.882;2022-08-21T03:38:09;19.95;;;18.02;;
21519;SDS011;10921;53.614;9.882;2022-08-21T03:40:36;23.35;;;19.50;;
21519;SDS011;10921;53.614;9.882;2022-08-21T03:43:02;20.13;;;18.30;;
21519;SDS011;10921;53.614;9.882;2022-08-21T03:45:29;20.70;;;18.77;;
21519;SDS011;10921;53.614;9.882;2022-08-21T03:50:25;20.88;;;18.95;;
21519;SDS011;10921;53.614;9.882;2022-08-21T03:52:53;20.55;;;18.75;;
21519;SDS011;10921;53.614;9.882;2022-08-21T03:55:19;21.92;;;19.70;;
21519;SDS011;10921;53.614;9.882;2022-08-21T03:57:46;21.65;;;19.45;;
21519;SDS011;10921;53.614;9.882;2022-08-21T04:00:13;20.60;;;18.98;;
21519;SDS011;10921;53.614;9.882;2022-08-21T04:02:41;20.58;;;18.75;;
21519;SDS011;10921;53.614;9.882;2022-08-21T04:05:09;20.55;;;18.83;;
21519;SDS011;10921;53.614;9.882;2022-08-21T04:07:38;21.88;;;19.58;;
21519;SDS011;10921;53.614;9.882;2022-08-21T04:10:08;21.17;;;19.13;;
21519;SDS011;10921;53.614;9.882;2022-08-21T04:12:34;21.27;;;19.48;;
21519;SDS011;10921;53.614;9.882;2022-08-21T04:15:01;22.00;;;19.70;;
21519;SDS011;10921;53.614;9.882;2022-08-21T04:17:28;22.45;;;20.20;;
21519;SDS011;10921;53.614;9.882;2022-08-21T04:19:54;21.77;;;19.98;;
21519;SDS011;10921;53.614;9.882;2022-08-21T04:22:21;21.30;;;19.55;;
21519;SDS011;10921;53.614;9.882;2022-08-21T04:24:48;21.45;;;19.63;;
21519;SDS011;10921;53.614;9.882;2022-08-21T04:27:14;21.98;;;19.85;;
21519;SDS011;10921;53.614;9.882;2022-08-21T04:29:41;21.02;;;19.13;;
21519;SDS011;10921;53.614;9.882;2022-08-21T04:32:07;20.88;;;19.15;;
21519;SDS011;10921;53.614;9.882;2022-08-21T04:34:34;20.90;;;19.15;;
21519;SDS011;10921;53.614;9.882;2022-08-21T04:37:00;20.40;;;18.90;;
21519;SDS011;10921;53.614;9.882;2022-08-21T04:39:27;21.60;;;19.35;;
21519;SDS011;10921;53.614;9.882;2022-08-21T04:41:55;21.67;;;19.73;;
21519;SDS011;10921;53.614;9.882;2022-08-21T04:44:21;22.10;;;20.10;;
21519;SDS011;10921;53.614;9.882;2022-08-21T04:46:48;21.80;;;19.85;;
21519;SDS011;10921;53.614;9.882;2022-08-21T04:49:14;22.27;;;20.20;;
21519;SDS011;10921;53.614;9.882;2022-08-21T04:51:40;21.65;;;19.65;;
21519;SDS011;10921;53.614;9.882;2022-08-21T04:56:42;20.88;;;18.98;;
21519;SDS011;10921;53.614;9.882;2022-08-21T04:59:15;20.55;;;18.52;;
21519;SDS011;10921;53.614;9.882;2022-08-21T05:01:50;21.48;;;19.33;;
21519;SDS011;10921;53.614;9.882;2022-08-21T05:04:18;23.88;;;18.40;;
21519;SDS011;10921;53.614;9.882;2022-08-21T05:06:48;20.17;;;18.27;;
21519;SDS011;10921;53.614;9.882;2022-08-21T05:09:17;18.77;;;17.08;;
21519;SDS011;10921;53.614;9.882;2022-08-21T05:11:45;19.08;;;17.30;;
21519;SDS011;10921;53.614;9.882;2022-08-21T05:14:12;18.40;;;16.77;;
21519;SDS011;10921;53.614;9.882;2022-08-21T05:16:39;18.40;;;16.92;;
21519;SDS011;10921;53.614;9.882;2022-08-21T05:19:06;19.13;;;17.33;;
21519;SDS011;10921;53.614;9.882;2022-08-21T05:21:34;18.80;;;16.85;;
21519;SDS011;10921;53.614;9.882;2022-08-21T05:24:01;18.00;;;16.17;;
21519;SDS011;10921;53.614;9.882;2022-08-21T05:26:28;18.23;;;16.30;;
21519;SDS011;10921;53.614;9.882;2022-08-21T05:28:54;17.65;;;15.93;;
21519;SDS011;10921;53.614;9.882;2022-08-21T05:31:22;17.48;;;15.70;;
21519;SDS011;10921;53.614;9.882;2022-08-21T05:33:49;18.90;;;15.73;;
21519;SDS011;10921;53.614;9.882;2022-08-21T05:36:17;16.40;;;14.93;;
21519;SDS011;10921;53.614;9.882;2022-08-21T05:38:44;18.15;;;14.57;;
21519;SDS011;10921;53.614;9.882;2022-08-21T05:41:12;14.65;;;12.82;;
21519;SDS011;10921;53.614;9.882;2022-08-21T05:43:38;14.63;;;13.13;;
21519;SDS011;10921;53.614;9.882;2022-08-21T05:46:06;15.07;;;13.50;;
21519;SDS011;10921;53.614;9.882;2022-08-21T05:48:33;15.05;;;13.48;;
21519;SDS011;10921;53.614;9.882;2022-08-21T05:51:08;13.77;;;12.40;;
21519;SDS011;10921;53.614;9.882;2022-08-21T05:53:37;13.82;;;12.43;;
21519;SDS011;10921;53.614;9.882;2022-08-21T05:56:04;18.38;;;12.48;;
21519;SDS011;10921;53.614;9.882;2022-08-21T05:58:32;13.40;;;12.07;;
21519;SDS011;10921;53.614;9.882;2022-08-21T06:00:59;15.18;;;11.77;;
21519;SDS011;10921;53.614;9.882;2022-08-21T06:03:29;15.63;;;11.50;;
21519;SDS011;10921;53.614;9.882;2022-08-21T06:05:58;13.43;;;10.95;;
21519;SDS011;10921;53.614;9.882;2022-08-21T06:08:25;12.40;;;10.85;;
21519;SDS011;10921;53.614;9.882;2022-08-21T06:10:52;14.00;;;11.00;;
21519;SDS011;10921;53.614;9.882;2022-08-21T06:13:21;16.25;;;11.40;;
21519;SDS011;10921;53.614;9.882;2022-08-21T06:15:49;15.38;;;10.65;;
21519;SDS011;10921;53.614;9.882;2022-08-21T06:18:16;12.32;;;11.13;;
21519;SDS011;10921;53.614;9.882;2022-08-21T06:20:42;11.93;;;10.63;;
21519;SDS011;10921;53.614;9.882;2022-08-21T06:23:10;13.73;;;10.18;;
21519;SDS011;10921;53.614;9.882;2022-08-21T06:25:36;12.48;;;10.00;;
21519;SDS011;10921;53.614;9.882;2022-08-21T06:28:04;11.68;;;10.50;;
21519;SDS011;10921;53.614;9.882;2022-08-21T06:30:32;12.75;;;10.00;;
21519;SDS011;10921;53.614;9.882;2022-08-21T06:33:00;12.02;;;9.60;;
21519;SDS011;10921;53.614;9.882;2022-08-21T06:35:27;12.63;;;9.23;;
21519;SDS011;10921;53.614;9.882;2022-08-21T06:37:55;13.32;;;9.63;;
21519;SDS011;10921;53.614;9.882;2022-08-21T06:40:23;15.38;;;9.63;;
21519;SDS011;10921;53.614;9.882;2022-08-21T06:42:50;11.85;;;9.00;;
21519;SDS011;10921;53.614;9.882;2022-08-21T06:45:16;9.70;;;8.70;;
21519;SDS011;10921;53.614;9.882;2022-08-21T06:47:43;9.02;;;8.20;;
21519;SDS011;10921;53.614;9.882;2022-08-21T06:50:10;13.18;;;8.55;;
21519;SDS011;10921;53.614;9.882;2022-08-21T06:52:36;12.48;;;8.50;;
21519;SDS011;10921;53.614;9.882;2022-08-21T06:55:04;9.38;;;8.52;;
21519;SDS011;10921;53.614;9.882;2022-08-21T06:57:32;9.27;;;8.13;;
21519;SDS011;10921;53.614;9.882;2022-08-21T06:59:59;9.32;;;8.25;;
21519;SDS011;10921;53.614;9.882;2022-08-21T07:02:26;9.25;;;8.35;;
21519;SDS011;10921;53.614;9.882;2022-08-21T07:04:52;11.27;;;8.23;;
21519;SDS011;10921;53.614;9.882;2022-08-21T07:07:19;11.02;;;8.10;;
21519;SDS011;10921;53.614;9.882;2022-08-21T07:09:45;15.80;;;8.40;;
21519;SDS011;10921;53.614;9.882;2022-08-21T07:12:12;10.05;;;8.00;;
21519;SDS011;10921;53.614;9.882;2022-08-21T07:14:39;10.27;;;8.32;;
21519;SDS011;10921;53.614;9.882;2022-08-21T07:17:05;12.38;;;8.15;;
21519;SDS011;10921;53.614;9.882;2022-08-21T07:19:32;9.77;;;7.70;;
21519;SDS011;10921;53.614;9.882;2022-08-21T07:22:00;10.13;;;8.30;;
21519;SDS011;10921;53.614;9.882;2022-08-21T07:24:28;14.82;;;8.32;;
21519;SDS011;10921;53.614;9.882;2022-08-21T07:26:55;9.32;;;8.10;;
21519;SDS011;10921;53.614;9.882;2022-08-21T07:29:21;10.82;;;8.15;;
21519;SDS011;10921;53.614;9.882;2022-08-21T07:31:48;9.10;;;8.15;;
21519;SDS011;10921;53.614;9.882;2022-08-21T07:34:15;10.38;;;8.02;;
21519;SDS011;10921;53.614;9.882;2022-08-21T07:36:42;9.90;;;7.70;;
21519;SDS011;10921;53.614;9.882;2022-08-21T07:39:08;11.02;;;7.97;;
21519;SDS011;10921;53.614;9.882;2022-08-21T07:41:35;11.75;;;8.00;;
21519;SDS011;10921;53.614;9.882;2022-08-21T07:44:02;15.18;;;8.50;;
21519;SDS011;10921;53.614;9.882;2022-08-21T07:46:31;12.02;;;7.85;;
21519;SDS011;10921;53.614;9.882;2022-08-21T07:48:58;10.65;;;7.53;;
21519;SDS011;10921;53.614;9.882;2022-08-21T07:51:25;13.00;;;7.18;;
21519;SDS011;10921;53.614;9.882;2022-08-21T07:53:54;8.38;;;7.18;;
21519;SDS011;10921;53.614;9.882;2022-08-21T07:58:50;11.52;;;7.60;;
21519;SDS011;10921;53.614;9.882;2022-08-21T08:01:17;9.82;;;7.72;;
21519;SDS011;10921;53.614;9.882;2022-08-21T08:03:43;8.77;;;7.22;;
21519;SDS011;10921;53.614;9.882;2022-08-21T08:06:11;12.05;;;7.18;;
21519;SDS011;10921;53.614;9.882;2022-08-21T08:08:42;9.10;;;7.00;;
21519;SDS011;10921;53.614;9.882;2022-08-21T08:11:09;10.68;;;7.20;;
21519;SDS011;10921;53.614;9.882;2022-08-21T08:13:41;9.05;;;7.40;;
21519;SDS011;10921;53.614;9.882;2022-08-21T08:16:09;10.02;;;7.30;;
21519;SDS011;10921;53.614;9.882;2022-08-21T08:18:36;13.40;;;7.78;;
21519;SDS011;10921;53.614;9.882;2022-08-21T08:21:03;10.23;;;7.70;;
21519;SDS011;10921;53.614;9.882;2022-08-21T08:23:31;13.13;;;7.82;;
21519;SDS011;10921;53.614;9.882;2022-08-21T08:25:58;13.95;;;8.13;;
21519;SDS011;10921;53.614;9.882;2022-08-21T08:28:25;12.80;;;7.85;;
21519;SDS011;10921;53.614;9.882;2022-08-21T08:30:53;10.00;;;7.32;;
21519;SDS011;10921;53.614;9.882;2022-08-21T08:33:19;13.70;;;7.63;;
21519;SDS011;10921;53.614;9.882;2022-08-21T08:35:47;16.15;;;7.60;;
21519;SDS011;10921;53.614;9.882;2022-08-21T08:38:16;13.73;;;8.15;;
21519;SDS011;10921;53.614;9.882;2022-08-21T08:43:49;9.68;;;7.40;;
21519;SDS011;10921;53.614;9.882;2022-08-21T08:46:20;12.43;;;8.00;;
21519;SDS011;10921;53.614;9.882;2022-08-21T08:48:57;8.68;;;7.75;;
21519;SDS011;10921;53.614;9.882;2022-08-21T08:54:34;11.40;;;7.78;;
21519;SDS011;10921;53.614;9.882;2022-08-21T08:57:09;15.65;;;8.13;;
21519;SDS011;10921;53.614;9.882;2022-08-21T08:59:45;14.15;;;8.35;;
21519;SDS011;10921;53.614;9.882;2022-08-21T09:02:15;12.57;;;7.80;;
21519;SDS011;10921;53.614;9.882;2022-08-21T09:04:44;9.85;;;8.00;;
21519;SDS011;10921;53.614;9.882;2022-08-21T09:15:44;10.23;;;7.63;;
21519;SDS011;10921;53.614;9.882;2022-08-21T09:18:25;12.32;;;8.10;;
21519;SDS011;10921;53.614;9.882;2022-08-21T09:21:07;17.70;;;8.45;;
21519;SDS011;10921;53.614;9.882;2022-08-21T09:23:45;12.23;;;7.95;;
21519;SDS011;10921;53.614;9.882;2022-08-21T09:26:26;16.35;;;8.90;;
21519;SDS011;10921;53.614;9.882;2022-08-21T09:29:05;16.05;;;8.63;;
21519;SDS011;10921;53.614;9.882;2022-08-21T09:31:36;10.82;;;8.05;;
21519;SDS011;10921;53.614;9.882;2022-08-21T09:34:05;14.80;;;8.38;;
21519;SDS011;10921;53.614;9.882;2022-08-21T09:36:41;11.10;;;8.35;;
21519;SDS011;10921;53.614;9.882;2022-08-21T09:39:09;14.18;;;8.50;;
21519;SDS011;10921;53.614;9.882;2022-08-21T09:41:38;13.77;;;8.80;;
21519;SDS011;10921;53.614;9.882;2022-08-21T09:44:07;12.77;;;8.25;;
21519;SDS011;10921;53.614;9.882;2022-08-21T09:46:34;12.32;;;8.40;;
21519;SDS011;10921;53.614;9.882;2022-08-21T09:49:03;14.00;;;7.93;;
21519;SDS011;10921;53.614;9.882;2022-08-21T09:51:38;15.40;;;8.50;;
21519;SDS011;10921;53.614;9.882;2022-08-21T09:54:17;10.80;;;8.20;;
21519;SDS011;10921;53.614;9.882;2022-08-21T09:56:55;13.13;;;8.07;;
21519;SDS011;10921;53.614;9.882;2022-08-21T09:59:45;12.57;;;7.95;;
21519;SDS011;10921;53.614;9.882;2022-08-21T10:04:59;10.80;;;8.23;;
21519;SDS011;10921;53.614;9.882;2022-08-21T10:07:30;12.35;;;8.02;;
21519;SDS011;10921;53.614;9.882;2022-08-21T10:13:17;17.88;;;9.25;;
21519;SDS011;10921;53.614;9.882;2022-08-21T10:21:10;12.60;;;8.10;;
21519;SDS011;10921;53.614;9.882;2022-08-21T10:27:10;13.57;;;7.80;;
21519;SDS011;10921;53.614;9.882;2022-08-21T10:29:47;11.77;;;7.70;;
21519;SDS011;10921;53.614;9.882;2022-08-21T10:32:30;9.95;;;7.55;;
21519;SDS011;10921;53.614;9.882;2022-08-21T10:35:13;10.07;;;7.38;;
21519;SDS011;10921;53.614;9.882;2022-08-21T10:40:29;11.45;;;7.47;;
21519;SDS011;10921;53.614;9.882;2022-08-21T10:48:39;11.57;;;7.82;;
21519;SDS011;10921;53.614;9.882;2022-08-21T10:51:28;10.32;;;7.57;;
21519;SDS011;10921;53.614;9.882;2022-08-21T10:54:22;9.20;;;7.40;;
21519;SDS011;10921;53.614;9.882;2022-08-21T10:57:19;8.43;;;7.53;;
21519;SDS011;10921;53.614;9.882;2022-08-21T11:00:07;9.35;;;7.57;;
21519;SDS011;10921;53.614;9.882;2022-08-21T11:02:49;8.45;;;7.65;;
21519;SDS011;10921;53.614;9.882;2022-08-21T11:08:02;10.90;;;7.80;;
21519;SDS011;10921;53.614;9.882;2022-08-21T11:10:42;10.32;;;7.40;;
21519;SDS011;10921;53.614;9.882;2022-08-21T11:13:27;9.45;;;7.50;;
21519;SDS011;10921;53.614;9.882;2022-08-21T11:16:18;8.05;;;7.00;;
21519;SDS011;10921;53.614;9.882;2022-08-21T11:18:53;9.18;;;7.65;;
21519;SDS011;10921;53.614;9.882;2022-08-21T11:21:29;9.10;;;7.43;;
21519;SDS011;10921;53.614;9.882;2022-08-21T11:23:59;11.80;;;7.80;;
21519;SDS011;10921;53.614;9.882;2022-08-21T11:26:41;8.90;;;7.20;;
21519;SDS011;10921;53.614;9.882;2022-08-21T11:29:11;10.00;;;7.25;;
21519;SDS011;10921;53.614;9.882;2022-08-21T11:46:11;10.77;;;6.80;;
21519;SDS011;10921;53.614;9.882;2022-08-21T11:51:22;10.50;;;7.35;;
21519;SDS011;10921;53.614;9.882;2022-08-21T11:54:03;8.00;;;6.80;;
21519;SDS011;10921;53.614;9.882;2022-08-21T11:56:37;8.20;;;6.90;;
21519;SDS011;10921;53.614;9.882;2022-08-21T11:59:10;11.95;;;6.88;;
21519;SDS011;10921;53.614;9.882;2022-08-21T12:01:43;9.05;;;6.72;;
21519;SDS011;10921;53.614;9.882;2022-08-21T12:04:26;10.77;;;6.63;;
21519;SDS011;10921;53.614;9.882;2022-08-21T12:06:55;6.75;;;6.07;;
21519;SDS011;10921;53.614;9.882;2022-08-21T12:12:05;7.00;;;6.20;;
21519;SDS011;10921;53.614;9.882;2022-08-21T12:14:49;8.90;;;6.55;;
21519;SDS011;10921;53.614;9.882;2022-08-21T12:17:19;6.90;;;6.30;;
21519;SDS011;10921;53.614;9.882;2022-08-21T12:19:59;14.45;;;6.68;;
21519;SDS011;10921;53.614;9.882;2022-08-21T12:22:41;9.68;;;6.38;;
21519;SDS011;10921;53.614;9.882;2022-08-21T12:25:10;7.78;;;6.43;;
21519;SDS011;10921;53.614;9.882;2022-08-21T12:27:47;10.05;;;7.03;;
21519;SDS011;10921;53.614;9.882;2022-08-21T12:30:34;7.78;;;6.90;;
21519;SDS011;10921;53.614;9.882;2022-08-21T12:33:04;7.13;;;6.50;;
21519;SDS011;10921;53.614;9.882;2022-08-21T12:35:44;7.50;;;6.70;;
21519;SDS011;10921;53.614;9.882;2022-08-21T12:38:27;9.77;;;6.50;;
21519;SDS011;10921;53.614;9.882;2022-08-21T12:41:05;7.53;;;6.70;;
21519;SDS011;10921;53.614;9.882;2022-08-21T12:43:44;7.57;;;6.97;;
21519;SDS011;10921;53.614;9.882;2022-08-21T12:46:18;7.22;;;6.47;;
21519;SDS011;10921;53.614;9.882;2022-08-21T12:48:51;6.93;;;5.97;;
21519;SDS011;10921;53.614;9.882;2022-08-21T12:51:29;6.32;;;5.72;;
21519;SDS011;10921;53.614;9.882;2022-08-21T12:53:59;6.70;;;6.20;;
21519;SDS011;10921;53.614;9.882;2022-08-21T12:56:27;7.80;;;6.78;;
21519;SDS011;10921;53.614;9.882;2022-08-21T12:59:00;7.57;;;6.28;;
21519;SDS011;10921;53.614;9.882;2022-08-21T13:01:35;7.88;;;6.65;;
21519;SDS011;10921;53.614;9.882;2022-08-21T13:04:11;7.95;;;5.80;;
21519;SDS011;10921;53.614;9.882;2022-08-21T13:06:41;6.43;;;5.90;;
21519;SDS011;10921;53.614;9.882;2022-08-21T13:09:12;6.85;;;6.25;;
21519;SDS011;10921;53.614;9.882;2022-08-21T13:11:42;7.38;;;6.47;;
21519;SDS011;10921;53.614;9.882;2022-08-21T13:14:19;7.63;;;6.88;;
21519;SDS011;10921;53.614;9.882;2022-08-21T13:16:58;6.80;;;6.07;;
21519;SDS011;10921;53.614;9.882;2022-08-21T13:19:26;6.95;;;5.90;;
21519;SDS011;10921;53.614;9.882;2022-08-21T13:21:55;7.18;;;6.57;;
21519;SDS011;10921;53.614;9.882;2022-08-21T13:27:23;8.82;;;6.78;;
21519;SDS011;10921;53.614;9.882;2022-08-21T13:32:28;6.80;;;6.25;;
21519;SDS011;10921;53.614;9.882;2022-08-21T13:34:58;6.93;;;6.07;;
21519;SDS011;10921;53.614;9.882;2022-08-21T13:37:25;7.05;;;6.32;;
21519;SDS011;10921;53.614;9.882;2022-08-21T13:39:55;6.72;;;6.13;;
21519;SDS011;10921;53.614;9.882;2022-08-21T13:42:21;7.97;;;6.13;;
21519;SDS011;10921;53.614;9.882;2022-08-21T13:44:50;6.57;;;6.00;;
21519;SDS011;10921;53.614;9.882;2022-08-21T13:47:18;6.60;;;6.07;;
21519;SDS011;10921;53.614;9.882;2022-08-21T13:49:46;7.78;;;7.00;;
21519;SDS011;10921;53.614;9.882;2022-08-21T13:52:15;7.55;;;6.85;;
21519;SDS011;10921;53.614;9.882;2022-08-21T13:54:51;7.03;;;6.43;;
21519;SDS011;10921;53.614;9.882;2022-08-21T13:57:25;7.30;;;6.60;;
21519;SDS011;10921;53.614;9.882;2022-08-21T14:02:40;7.30;;;6.65;;
21519;SDS011;10921;53.614;9.882;2022-08-21T14:05:18;6.75;;;6.25;;
21519;SDS011;10921;53.614;9.882;2022-08-21T14:07:49;7.80;;;6.72;;
21519;SDS011;10921;53.614;9.882;2022-08-21T14:10:18;7.50;;;6.75;;
21519;SDS011;10921;53.614;9.882;2022-08-21T14:12:49;7.40;;;6.70;;
21519;SDS011;10921;53.614;9.882;2022-08-21T14:15:20;6.80;;;6.20;;
21519;SDS011;10921;53.614;9.882;2022-08-21T14:17:51;7.82;;;6.60;;
21519;SDS011;10921;53.614;9.882;2022-08-21T14:22:56;7.43;;;6.75;;
21519;SDS011;10921;53.614;9.882;2022-08-21T14:27:58;7.50;;;6.75;;
21519;SDS011;10921;53.614;9.882;2022-08-21T14:30:42;7.22;;;6.63;;
21519;SDS011;10921;53.614;9.882;2022-08-21T14:33:11;8.75;;;7.30;;
21519;SDS011;10921;53.614;9.882;2022-08-21T14:35:40;7.47;;;6.63;;
21519;SDS011;10921;53.614;9.882;2022-08-21T14:38:11;7.68;;;6.82;;
21519;SDS011;10921;53.614;9.882;2022-08-21T14:40:54;7.60;;;6.90;;
21519;SDS011;10921;53.614;9.882;2022-08-21T14:43:24;7.63;;;6.93;;
21519;SDS011;10921;53.614;9.882;2022-08-21T14:45:52;7.07;;;6.20;;
21519;SDS011;10921;53.614;9.882;2022-08-21T14:48:19;7.05;;;6.32;;
21519;SDS011;10921;53.614;9.882;2022-08-21T14:50:46;6.45;;;6.05;;
21519;SDS011;10921;53.614;9.882;2022-08-21T14:53:13;8.27;;;6.43;;
21519;SDS011;10921;53.614;9.882;2022-08-21T14:55:40;7.00;;;6.35;;
21519;SDS011;10921;53.614;9.882;2022-08-21T14:58:25;7.57;;;6.85;;
21519;SDS011;10921;53.614;9.882;2022-08-21T15:00:52;7.10;;;6.50;;
21519;SDS011;10921;53.614;9.882;2022-08-21T15:03:20;9.18;;;6.82;;
21519;SDS011;10921;53.614;9.882;2022-08-21T15:05:48;7.28;;;6.43;;
21519;SDS011;10921;53.614;9.882;2022-08-21T15:08:15;6.80;;;6.13;;
21519;SDS011;10921;53.614;9.882;2022-08-21T15:10:42;7.85;;;6.40;;
21519;SDS011;10921;53.614;9.882;2022-08-21T15:13:29;7.55;;;6.60;;
21519;SDS011;10921;53.614;9.882;2022-08-21T15:15:57;7.43;;;6.68;;
21519;SDS011;10921;53.614;9.882;2022-08-21T15:18:25;8.82;;;7.15;;
21519;SDS011;10921;53.614;9.882;2022-08-21T15:20:54;7.05;;;6.20;;
21519;SDS011;10921;53.614;9.882;2022-08-21T15:23:20;6.70;;;6.05;;
21519;SDS011;10921;53.614;9.882;2022-08-21T15:25:48;7.10;;;6.45;;
21519;SDS011;10921;53.614;9.882;2022-08-21T15:28:15;6.53;;;6.00;;
21519;SDS011;10921;53.614;9.882;2022-08-21T15:30:44;6.90;;;6.20;;
21519;SDS011;10921;53.614;9.882;2022-08-21T15:33:11;7.53;;;6.38;;
21519;SDS011;10921;53.614;9.882;2022-08-21T15:35:37;6.93;;;6.32;;
21519;SDS011;10921;53.614;9.882;2022-08-21T15:38:06;6.85;;;6.20;;
21519;SDS011;10921;53.614;9.882;2022-08-21T15:40:36;6.63;;;6.03;;
21519;SDS011;10921;53.614;9.882;2022-08-21T15:43:19;7.53;;;5.88;;
21519;SDS011;10921;53.614;9.882;2022-08-21T15:45:55;7.75;;;6.25;;
21519;SDS011;10921;53.614;9.882;2022-08-21T15:48:24;6.43;;;5.77;;
21519;SDS011;10921;53.614;9.882;2022-08-21T15:50:50;9.88;;;6.78;;
21519;SDS011;10921;53.614;9.882;2022-08-21T15:53:17;7.72;;;6.88;;
21519;SDS011;10921;53.614;9.882;2022-08-21T15:55:43;9.65;;;6.55;;
21519;SDS011;10921;53.614;9.882;2022-08-21T15:58:14;9.43;;;6.75;;
21519;SDS011;10921;53.614;9.882;2022-08-21T16:00:42;7.57;;;6.50;;
21519;SDS011;10921;53.614;9.882;2022-08-21T16:03:11;8.25;;;6.32;;
21519;SDS011;10921;53.614;9.882;2022-08-21T16:05:45;9.40;;;6.30;;
21519;SDS011;10921;53.614;9.882;2022-08-21T16:08:14;9.63;;;6.85;;
21519;SDS011;10921;53.614;9.882;2022-08-21T16:10:41;7.45;;;6.75;;
21519;SDS011;10921;53.614;9.882;2022-08-21T16:13:11;6.93;;;6.30;;
21519;SDS011;10921;53.614;9.882;2022-08-21T16:15:46;7.40;;;6.72;;